sensor_id;sensor_type;location;lat;lon;timestamp;pressure;altitude;pressure_sealevel;temperature;humidity
75549;BME280;64133;56.002;37.208;2024-01-30T00:04:46;100110.26;;;-1.11;86.99
75549;BME280;64133;56.002;37.208;2024-01-30T00:09:51;100113.75;;;-1.14;86.66
75549;BME280;64133;56.002;37.208;2024-01-30T00:14:56;100117.38;;;-1.21;86.86
75549;BME280;64133;56.002;37.208;2024-01-30T00:20:01;100114.23;;;-1.16;87.00
75549;BME280;64133;56.002;37.208;2024-01-30T00:25:06;100120.70;;;-1.16;86.99
75549;BME280;64133;56.002;37.208;2024-01-30T00:30:13;100119.95;;;-1.21;86.98
75549;BME280;64133;56.002;37.208;2024-01-30T00:35:18;100113.85;;;-1.18;86.98
75549;BME280;64133;56.002;37.208;2024-01-30T00:40:23;100115.63;;;-1.20;87.09
75549;BME280;64133;56.002;37.208;2024-01-30T00:45:28;100104.41;;;-1.19;87.14
75549;BME280;64133;56.002;37.208;2024-01-30T00:50:33;100113.55;;;-1.24;86.97
75549;BME280;64133;56.002;37.208;2024-01-30T00:55:37;100103.11;;;-1.19;87.15
75549;BME280;64133;56.002;37.208;2024-01-30T01:00:42;100106.24;;;-1.24;86.99
75549;BME280;64133;56.002;37.208;2024-01-30T01:05:47;100101.53;;;-1.27;87.19
75549;BME280;64133;56.002;37.208;2024-01-30T01:10:52;100098.45;;;-1.23;87.35
75549;BME280;64133;56.002;37.208;2024-01-30T01:15:57;100095.84;;;-1.21;87.28
75549;BME280;64133;56.002;37.208;2024-01-30T01:21:02;100092.53;;;-1.28;87.11
75549;BME280;64133;56.002;37.208;2024-01-30T01:26:08;100076.12;;;-1.25;87.30
75549;BME280;64133;56.002;37.208;2024-01-30T01:31:14;100074.00;;;-1.28;87.32
75549;BME280;64133;56.002;37.208;2024-01-30T01:36:19;100080.39;;;-1.24;87.33
75549;BME280;64133;56.002;37.208;2024-01-30T01:41:24;99972.30;;;-1.82;87.26
75549;BME280;64133;56.002;37.208;2024-01-30T01:46:30;100086.14;;;-1.12;87.31
75549;BME280;64133;56.002;37.208;2024-01-30T01:51:35;100084.00;;;-1.12;87.22
75549;BME280;64133;56.002;37.208;2024-01-30T01:56:39;100076.71;;;-1.14;87.28
75549;BME280;64133;56.002;37.208;2024-01-30T02:01:44;100067.50;;;-1.07;87.33
75549;BME280;64133;56.002;37.208;2024-01-30T02:06:49;100077.67;;;-0.99;87.35
75549;BME280;64133;56.002;37.208;2024-01-30T02:11:53;100076.04;;;-1.03;87.36
75549;BME280;64133;56.002;37.208;2024-01-30T02:16:58;100076.39;;;-1.01;87.24
75549;BME280;64133;56.002;37.208;2024-01-30T02:22:03;100082.69;;;-0.93;87.33
75549;BME280;64133;56.002;37.208;2024-01-30T02:27:08;100071.88;;;-0.91;87.25
75549;BME280;64133;56.002;37.208;2024-01-30T02:32:13;100078.19;;;-0.85;87.19
75549;BME280;64133;56.002;37.208;2024-01-30T02:37:18;100071.78;;;-0.88;87.16
75549;BME280;64133;56.002;37.208;2024-01-30T02:42:23;100075.59;;;-0.85;87.44
75549;BME280;64133;56.002;37.208;2024-01-30T02:47:28;100072.84;;;-0.77;87.10
75549;BME280;64133;56.002;37.208;2024-01-30T02:52:33;100071.03;;;-0.73;86.97
75549;BME280;64133;56.002;37.208;2024-01-30T02:57:38;100093.03;;;-0.75;86.85
75549;BME280;64133;56.002;37.208;2024-01-30T03:02:43;100087.80;;;-0.72;86.91
75549;BME280;64133;56.002;37.208;2024-01-30T03:07:48;100080.42;;;-0.69;86.87
75549;BME280;64133;56.002;37.208;2024-01-30T03:12:53;100088.13;;;-0.68;86.93
75549;BME280;64133;56.002;37.208;2024-01-30T03:17:57;100083.75;;;-0.66;86.83
75549;BME280;64133;56.002;37.208;2024-01-30T03:23:02;100082.39;;;-0.63;86.82
75549;BME280;64133;56.002;37.208;2024-01-30T03:28:08;100083.50;;;-0.55;86.66
75549;BME280;64133;56.002;37.208;2024-01-30T03:33:12;100098.58;;;-0.55;86.58
75549;BME280;64133;56.002;37.208;2024-01-30T03:38:17;100108.37;;;-0.49;86.55
75549;BME280;64133;56.002;37.208;2024-01-30T03:43:22;100107.41;;;-0.45;86.51
75549;BME280;64133;56.002;37.208;2024-01-30T03:48:27;100106.56;;;-0.46;86.48
75549;BME280;64133;56.002;37.208;2024-01-30T03:53:32;100119.44;;;-0.43;86.48
75549;BME280;64133;56.002;37.208;2024-01-30T03:58:37;100115.34;;;-0.35;86.26
75549;BME280;64133;56.002;37.208;2024-01-30T04:03:42;100120.38;;;-0.29;86.25
75549;BME280;64133;56.002;37.208;2024-01-30T04:08:47;100117.79;;;-0.29;85.98
75549;BME280;64133;56.002;37.208;2024-01-30T04:13:51;100112.61;;;-0.29;86.06
75549;BME280;64133;56.002;37.208;2024-01-30T04:18:57;100114.23;;;-0.25;85.97
75549;BME280;64133;56.002;37.208;2024-01-30T04:24:01;100109.73;;;-0.18;85.93
75549;BME280;64133;56.002;37.208;2024-01-30T04:29:06;100109.28;;;-0.18;85.90
75549;BME280;64133;56.002;37.208;2024-01-30T04:34:11;100113.67;;;-0.20;85.88
75549;BME280;64133;56.002;37.208;2024-01-30T04:39:16;100112.58;;;-0.11;85.86
75549;BME280;64133;56.002;37.208;2024-01-30T04:44:21;100102.67;;;-0.12;85.83
75549;BME280;64133;56.002;37.208;2024-01-30T04:49:26;100106.58;;;-0.13;85.85
75549;BME280;64133;56.002;37.208;2024-01-30T04:54:31;100102.55;;;-0.07;85.84
75549;BME280;64133;56.002;37.208;2024-01-30T04:59:36;100106.03;;;-0.08;85.68
75549;BME280;64133;56.002;37.208;2024-01-30T05:04:41;100104.73;;;-0.08;85.71
75549;BME280;64133;56.002;37.208;2024-01-30T05:09:46;100112.27;;;0.01;85.76
75549;BME280;64133;56.002;37.208;2024-01-30T05:14:51;100116.27;;;-0.04;85.56
75549;BME280;64133;56.002;37.208;2024-01-30T05:19:56;100114.41;;;0.02;85.62
75549;BME280;64133;56.002;37.208;2024-01-30T05:25:01;100113.45;;;0.04;85.56
75549;BME280;64133;56.002;37.208;2024-01-30T05:30:07;100114.20;;;0.09;85.51
75549;BME280;64133;56.002;37.208;2024-01-30T05:35:12;100123.39;;;0.05;85.32
75549;BME280;64133;56.002;37.208;2024-01-30T05:40:17;100131.16;;;0.05;85.47
75549;BME280;64133;56.002;37.208;2024-01-30T05:45:22;100118.09;;;0.09;85.52
75549;BME280;64133;56.002;37.208;2024-01-30T05:50:27;100127.50;;;0.12;85.40
75549;BME280;64133;56.002;37.208;2024-01-30T05:55:32;100139.67;;;0.08;85.27
75549;BME280;64133;56.002;37.208;2024-01-30T06:00:37;100145.69;;;0.10;85.29
75549;BME280;64133;56.002;37.208;2024-01-30T06:05:42;100148.27;;;0.10;85.35
75549;BME280;64133;56.002;37.208;2024-01-30T06:10:47;100146.80;;;0.16;85.33
75549;BME280;64133;56.002;37.208;2024-01-30T06:15:52;100156.17;;;0.22;85.20
75549;BME280;64133;56.002;37.208;2024-01-30T06:20:58;100155.80;;;0.19;85.35
75549;BME280;64133;56.002;37.208;2024-01-30T06:26:06;100162.15;;;0.24;85.19
75549;BME280;64133;56.002;37.208;2024-01-30T06:31:10;100166.81;;;0.28;85.18
75549;BME280;64133;56.002;37.208;2024-01-30T06:36:17;100174.19;;;0.27;85.11
75549;BME280;64133;56.002;37.208;2024-01-30T06:41:25;100176.77;;;0.27;84.98
75549;BME280;64133;56.002;37.208;2024-01-30T06:46:30;100167.98;;;0.32;85.16
75549;BME280;64133;56.002;37.208;2024-01-30T06:51:36;100176.09;;;0.35;84.76
75549;BME280;64133;56.002;37.208;2024-01-30T06:56:43;100174.53;;;0.29;84.64
75549;BME280;64133;56.002;37.208;2024-01-30T07:01:52;100180.55;;;0.30;85.04
75549;BME280;64133;56.002;37.208;2024-01-30T07:07:03;100193.37;;;0.36;84.80
75549;BME280;64133;56.002;37.208;2024-01-30T07:12:12;100183.65;;;0.44;84.91
75549;BME280;64133;56.002;37.208;2024-01-30T07:17:34;100194.34;;;0.48;84.77
75549;BME280;64133;56.002;37.208;2024-01-30T07:22:41;100188.78;;;0.45;84.49
75549;BME280;64133;56.002;37.208;2024-01-30T07:27:48;100204.92;;;0.55;84.67
75549;BME280;64133;56.002;37.208;2024-01-30T07:33:09;100208.55;;;0.64;84.22
75549;BME280;64133;56.002;37.208;2024-01-30T07:38:20;100197.00;;;0.61;84.17
75549;BME280;64133;56.002;37.208;2024-01-30T07:43:30;100212.82;;;0.67;84.16
75549;BME280;64133;56.002;37.208;2024-01-30T07:48:35;100207.90;;;0.72;84.06
75549;BME280;64133;56.002;37.208;2024-01-30T07:53:40;100212.30;;;0.70;83.88
75549;BME280;64133;56.002;37.208;2024-01-30T07:58:45;100205.94;;;0.66;84.13
75549;BME280;64133;56.002;37.208;2024-01-30T08:03:50;100201.92;;;0.70;84.10
75549;BME280;64133;56.002;37.208;2024-01-30T08:08:55;100203.01;;;0.93;84.09
75549;BME280;64133;56.002;37.208;2024-01-30T08:14:00;100210.28;;;0.95;83.78
75549;BME280;64133;56.002;37.208;2024-01-30T08:19:05;100216.31;;;0.95;83.62
75549;BME280;64133;56.002;37.208;2024-01-30T08:24:10;100216.23;;;0.98;83.59
75549;BME280;64133;56.002;37.208;2024-01-30T08:29:15;100208.58;;;1.09;83.32
75549;BME280;64133;56.002;37.208;2024-01-30T08:34:20;100193.37;;;1.11;83.40
75549;BME280;64133;56.002;37.208;2024-01-30T08:39:25;100213.41;;;0.91;83.45
75549;BME280;64133;56.002;37.208;2024-01-30T08:44:30;100214.53;;;1.12;83.60
75549;BME280;64133;56.002;37.208;2024-01-30T08:49:35;100226.41;;;1.34;83.08
75549;BME280;64133;56.002;37.208;2024-01-30T08:54:40;100234.54;;;1.23;82.98
75549;BME280;64133;56.002;37.208;2024-01-30T08:59:45;100220.37;;;1.34;82.67
75549;BME280;64133;56.002;37.208;2024-01-30T09:04:50;100230.39;;;1.46;82.52
75549;BME280;64133;56.002;37.208;2024-01-30T09:09:55;100223.59;;;1.14;82.67
75549;BME280;64133;56.002;37.208;2024-01-30T09:15:01;100197.95;;;1.18;82.52
75549;BME280;64133;56.002;37.208;2024-01-30T09:20:07;100208.72;;;1.47;82.08
75549;BME280;64133;56.002;37.208;2024-01-30T09:25:13;100204.80;;;1.34;81.82
75549;BME280;64133;56.002;37.208;2024-01-30T09:30:18;100210.73;;;1.24;82.25
75549;BME280;64133;56.002;37.208;2024-01-30T09:35:23;100203.63;;;1.16;82.29
75549;BME280;64133;56.002;37.208;2024-01-30T09:40:29;100198.99;;;1.40;82.74
75549;BME280;64133;56.002;37.208;2024-01-30T09:45:34;100201.39;;;1.46;82.05
75549;BME280;64133;56.002;37.208;2024-01-30T09:50:39;100210.88;;;1.61;81.71
75549;BME280;64133;56.002;37.208;2024-01-30T09:55:45;100203.46;;;1.63;81.58
75549;BME280;64133;56.002;37.208;2024-01-30T10:00:50;100207.88;;;1.46;81.50
75549;BME280;64133;56.002;37.208;2024-01-30T10:05:55;100219.22;;;1.44;81.34
75549;BME280;64133;56.002;37.208;2024-01-30T10:11:00;100207.88;;;1.46;81.43
75549;BME280;64133;56.002;37.208;2024-01-30T10:16:06;100211.45;;;1.57;81.69
75549;BME280;64133;56.002;37.208;2024-01-30T10:21:11;100171.12;;;1.32;81.22
75549;BME280;64133;56.002;37.208;2024-01-30T10:26:17;100193.47;;;1.64;81.55
75549;BME280;64133;56.002;37.208;2024-01-30T10:31:22;100189.03;;;1.81;80.80
75549;BME280;64133;56.002;37.208;2024-01-30T10:36:27;100185.22;;;2.30;80.30
75549;BME280;64133;56.002;37.208;2024-01-30T10:41:32;100183.53;;;2.29;79.95
75549;BME280;64133;56.002;37.208;2024-01-30T10:46:37;100079.47;;;1.70;79.28
75549;BME280;64133;56.002;37.208;2024-01-30T10:51:42;100167.92;;;2.04;79.85
75549;BME280;64133;56.002;37.208;2024-01-30T10:56:46;100176.03;;;1.94;79.97
75549;BME280;64133;56.002;37.208;2024-01-30T11:01:52;100178.73;;;1.78;80.23
75549;BME280;64133;56.002;37.208;2024-01-30T11:06:56;100184.34;;;1.66;80.60
75549;BME280;64133;56.002;37.208;2024-01-30T11:12:02;100197.81;;;1.64;80.90
75549;BME280;64133;56.002;37.208;2024-01-30T11:17:07;100202.54;;;1.51;80.95
75549;BME280;64133;56.002;37.208;2024-01-30T11:22:12;100208.47;;;1.41;81.48
75549;BME280;64133;56.002;37.208;2024-01-30T11:27:16;100224.98;;;1.39;81.57
75549;BME280;64133;56.002;37.208;2024-01-30T11:32:24;100228.11;;;1.50;81.22
75549;BME280;64133;56.002;37.208;2024-01-30T11:37:32;100214.01;;;1.31;81.35
75549;BME280;64133;56.002;37.208;2024-01-30T11:42:37;100229.63;;;1.42;81.57
75549;BME280;64133;56.002;37.208;2024-01-30T11:47:42;100235.59;;;1.46;81.71
75549;BME280;64133;56.002;37.208;2024-01-30T11:52:48;100242.47;;;1.47;81.67
75549;BME280;64133;56.002;37.208;2024-01-30T11:57:57;100242.84;;;1.35;81.83
75549;BME280;64133;56.002;37.208;2024-01-30T12:03:02;100243.97;;;1.41;82.05
75549;BME280;64133;56.002;37.208;2024-01-30T12:08:07;100243.80;;;1.32;81.53
75549;BME280;64133;56.002;37.208;2024-01-30T12:13:12;100239.51;;;1.31;81.84
75549;BME280;64133;56.002;37.208;2024-01-30T12:18:19;100235.50;;;1.34;81.91
75549;BME280;64133;56.002;37.208;2024-01-30T12:23:24;100240.30;;;1.33;81.88
75549;BME280;64133;56.002;37.208;2024-01-30T12:28:29;100242.30;;;1.53;81.80
75549;BME280;64133;56.002;37.208;2024-01-30T12:33:35;100250.09;;;1.53;81.58
75549;BME280;64133;56.002;37.208;2024-01-30T12:38:39;100249.75;;;1.64;81.71
75549;BME280;64133;56.002;37.208;2024-01-30T12:43:45;100237.77;;;1.73;81.30
75549;BME280;64133;56.002;37.208;2024-01-30T12:48:49;100250.26;;;1.62;81.44
75549;BME280;64133;56.002;37.208;2024-01-30T12:53:55;100256.38;;;1.59;81.64
75549;BME280;64133;56.002;37.208;2024-01-30T12:59:00;100253.81;;;1.44;81.55
75549;BME280;64133;56.002;37.208;2024-01-30T13:04:05;100259.46;;;1.44;82.01
75549;BME280;64133;56.002;37.208;2024-01-30T13:09:10;100257.80;;;1.41;81.90
75549;BME280;64133;56.002;37.208;2024-01-30T13:14:15;100258.69;;;1.25;82.08
75549;BME280;64133;56.002;37.208;2024-01-30T13:19:20;100267.69;;;1.29;82.57
75549;BME280;64133;56.002;37.208;2024-01-30T13:24:24;100272.25;;;1.20;82.33
75549;BME280;64133;56.002;37.208;2024-01-30T13:29:30;100267.45;;;1.21;82.58
75549;BME280;64133;56.002;37.208;2024-01-30T13:34:35;100266.29;;;1.17;82.39
75549;BME280;64133;56.002;37.208;2024-01-30T13:39:40;100269.84;;;1.14;82.62
75549;BME280;64133;56.002;37.208;2024-01-30T13:44:45;100269.49;;;1.27;82.63
75549;BME280;64133;56.002;37.208;2024-01-30T13:49:50;100265.84;;;1.17;82.41
75549;BME280;64133;56.002;37.208;2024-01-30T13:54:55;100271.85;;;1.19;82.65
75549;BME280;64133;56.002;37.208;2024-01-30T14:00:00;100272.89;;;1.14;82.93
75549;BME280;64133;56.002;37.208;2024-01-30T14:05:05;100278.95;;;1.13;82.77
75549;BME280;64133;56.002;37.208;2024-01-30T14:10:10;100278.47;;;1.15;82.71
75549;BME280;64133;56.002;37.208;2024-01-30T14:15:16;100290.81;;;1.07;82.76
75549;BME280;64133;56.002;37.208;2024-01-30T14:20:21;100290.28;;;1.10;82.88
75549;BME280;64133;56.002;37.208;2024-01-30T14:25:25;100291.26;;;1.06;82.96
75549;BME280;64133;56.002;37.208;2024-01-30T14:30:33;100297.61;;;1.11;82.77
75549;BME280;64133;56.002;37.208;2024-01-30T14:35:39;100292.05;;;1.08;82.82
75549;BME280;64133;56.002;37.208;2024-01-30T14:40:43;100284.84;;;1.03;83.05
75549;BME280;64133;56.002;37.208;2024-01-30T14:45:48;100290.67;;;0.96;83.07
75549;BME280;64133;56.002;37.208;2024-01-30T14:50:53;100297.68;;;0.93;83.11
75549;BME280;64133;56.002;37.208;2024-01-30T14:55:58;100290.95;;;0.86;83.37
75549;BME280;64133;56.002;37.208;2024-01-30T15:01:03;100301.17;;;0.92;83.36
75549;BME280;64133;56.002;37.208;2024-01-30T15:06:08;100300.34;;;0.90;83.44
75549;BME280;64133;56.002;37.208;2024-01-30T15:11:14;100302.15;;;0.88;83.46
75549;BME280;64133;56.002;37.208;2024-01-30T15:16:18;100308.31;;;0.84;83.51
75549;BME280;64133;56.002;37.208;2024-01-30T15:21:23;100310.58;;;0.96;83.31
75549;BME280;64133;56.002;37.208;2024-01-30T15:26:28;100324.39;;;0.96;83.65
75549;BME280;64133;56.002;37.208;2024-01-30T15:31:33;100319.73;;;0.93;83.21
75549;BME280;64133;56.002;37.208;2024-01-30T15:36:38;100330.38;;;0.98;83.51
75549;BME280;64133;56.002;37.208;2024-01-30T15:41:43;100323.96;;;0.95;83.20
75549;BME280;64133;56.002;37.208;2024-01-30T15:46:48;100332.59;;;1.12;83.40
75549;BME280;64133;56.002;37.208;2024-01-30T15:51:53;100333.55;;;1.10;83.08
75549;BME280;64133;56.002;37.208;2024-01-30T15:56:57;100343.22;;;1.03;83.31
75549;BME280;64133;56.002;37.208;2024-01-30T16:02:03;100348.34;;;1.06;83.37
75549;BME280;64133;56.002;37.208;2024-01-30T16:07:07;100341.02;;;1.20;83.05
75549;BME280;64133;56.002;37.208;2024-01-30T16:12:12;100341.09;;;1.17;82.92
75549;BME280;64133;56.002;37.208;2024-01-30T16:17:17;100347.03;;;1.22;82.78
75549;BME280;64133;56.002;37.208;2024-01-30T16:22:23;100347.48;;;1.22;82.83
75549;BME280;64133;56.002;37.208;2024-01-30T16:27:27;100349.13;;;1.24;82.90
75549;BME280;64133;56.002;37.208;2024-01-30T16:32:32;100346.28;;;1.17;83.29
75549;BME280;64133;56.002;37.208;2024-01-30T16:37:40;100346.02;;;1.12;83.11
75549;BME280;64133;56.002;37.208;2024-01-30T16:42:45;100349.20;;;1.21;82.88
75549;BME280;64133;56.002;37.208;2024-01-30T16:47:50;100346.28;;;1.17;82.78
75549;BME280;64133;56.002;37.208;2024-01-30T16:52:55;100344.00;;;1.07;82.76
75549;BME280;64133;56.002;37.208;2024-01-30T16:58:00;100344.89;;;1.22;83.14
75549;BME280;64133;56.002;37.208;2024-01-30T17:03:05;100341.86;;;1.21;82.63
75549;BME280;64133;56.002;37.208;2024-01-30T17:08:10;100348.03;;;1.17;82.94
75549;BME280;64133;56.002;37.208;2024-01-30T17:13:19;100351.00;;;1.19;82.75
75549;BME280;64133;56.002;37.208;2024-01-30T17:18:24;100355.34;;;1.03;82.84
75549;BME280;64133;56.002;37.208;2024-01-30T17:23:29;100353.45;;;1.09;82.93
75549;BME280;64133;56.002;37.208;2024-01-30T17:28:33;100352.80;;;1.01;82.56
75549;BME280;64133;56.002;37.208;2024-01-30T17:33:38;100366.25;;;0.99;83.00
75549;BME280;64133;56.002;37.208;2024-01-30T17:38:47;100365.84;;;0.98;82.95
75549;BME280;64133;56.002;37.208;2024-01-30T17:43:54;100357.22;;;0.97;83.15
75549;BME280;64133;56.002;37.208;2024-01-30T17:48:59;100364.34;;;0.89;82.98
75549;BME280;64133;56.002;37.208;2024-01-30T17:54:05;100364.88;;;1.02;83.29
75549;BME280;64133;56.002;37.208;2024-01-30T17:59:10;100353.15;;;1.04;82.66
75549;BME280;64133;56.002;37.208;2024-01-30T18:04:15;100353.13;;;1.05;83.07
75549;BME280;64133;56.002;37.208;2024-01-30T18:09:23;100349.13;;;1.08;82.59
75549;BME280;64133;56.002;37.208;2024-01-30T18:14:28;100345.11;;;1.13;82.77
75549;BME280;64133;56.002;37.208;2024-01-30T18:19:35;100346.52;;;1.10;82.75
75549;BME280;64133;56.002;37.208;2024-01-30T18:24:40;100340.55;;;0.90;82.68
75549;BME280;64133;56.002;37.208;2024-01-30T18:29:45;100341.05;;;0.88;83.03
75549;BME280;64133;56.002;37.208;2024-01-30T18:34:53;100347.31;;;0.95;82.85
75549;BME280;64133;56.002;37.208;2024-01-30T18:39:58;100353.38;;;0.96;82.71
75549;BME280;64133;56.002;37.208;2024-01-30T18:45:04;100350.03;;;0.91;83.04
75549;BME280;64133;56.002;37.208;2024-01-30T18:50:10;100341.58;;;0.84;83.00
75549;BME280;64133;56.002;37.208;2024-01-30T18:55:15;100337.69;;;0.84;83.09
75549;BME280;64133;56.002;37.208;2024-01-30T19:00:21;100337.30;;;0.82;82.97
75549;BME280;64133;56.002;37.208;2024-01-30T19:05:25;100338.84;;;0.72;82.97
75549;BME280;64133;56.002;37.208;2024-01-30T19:10:30;100347.97;;;0.71;83.38
75549;BME280;64133;56.002;37.208;2024-01-30T19:15:35;100340.14;;;0.72;83.51
75549;BME280;64133;56.002;37.208;2024-01-30T19:20:40;100334.51;;;0.73;83.14
75549;BME280;64133;56.002;37.208;2024-01-30T19:25:45;100338.16;;;0.82;83.08
75549;BME280;64133;56.002;37.208;2024-01-30T19:30:50;100338.62;;;0.65;83.15
75549;BME280;64133;56.002;37.208;2024-01-30T19:35:57;100347.66;;;0.49;83.31
75549;BME280;64133;56.002;37.208;2024-01-30T19:41:01;100344.67;;;0.48;83.71
75549;BME280;64133;56.002;37.208;2024-01-30T19:46:06;100349.30;;;0.53;83.69
75549;BME280;64133;56.002;37.208;2024-01-30T19:51:11;100339.20;;;0.59;83.65
75549;BME280;64133;56.002;37.208;2024-01-30T19:56:16;100347.83;;;0.59;83.58
75549;BME280;64133;56.002;37.208;2024-01-30T20:01:21;100346.27;;;0.52;83.39
75549;BME280;64133;56.002;37.208;2024-01-30T20:06:26;100341.19;;;0.49;83.37
75549;BME280;64133;56.002;37.208;2024-01-30T20:11:31;100345.53;;;0.47;83.57
75549;BME280;64133;56.002;37.208;2024-01-30T20:16:40;100336.00;;;0.49;83.65
75549;BME280;64133;56.002;37.208;2024-01-30T20:21:44;100344.19;;;0.32;83.79
75549;BME280;64133;56.002;37.208;2024-01-30T20:26:49;100344.41;;;0.23;83.75
75549;BME280;64133;56.002;37.208;2024-01-30T20:31:55;100336.75;;;0.18;84.01
75549;BME280;64133;56.002;37.208;2024-01-30T20:37:00;100339.29;;;0.20;84.38
75549;BME280;64133;56.002;37.208;2024-01-30T20:42:05;100335.91;;;0.34;84.15
75549;BME280;64133;56.002;37.208;2024-01-30T20:47:10;100336.98;;;0.25;83.81
75549;BME280;64133;56.002;37.208;2024-01-30T20:52:15;100331.07;;;0.20;83.89
75549;BME280;64133;56.002;37.208;2024-01-30T20:57:20;100340.25;;;0.16;84.57
75549;BME280;64133;56.002;37.208;2024-01-30T21:02:25;100336.97;;;0.27;84.49
75549;BME280;64133;56.002;37.208;2024-01-30T21:07:30;100332.25;;;0.25;84.12
75549;BME280;64133;56.002;37.208;2024-01-30T21:12:35;100329.32;;;0.39;84.04
75549;BME280;64133;56.002;37.208;2024-01-30T21:17:40;100325.98;;;0.35;83.94
75549;BME280;64133;56.002;37.208;2024-01-30T21:22:45;100327.67;;;0.36;83.85
75549;BME280;64133;56.002;37.208;2024-01-30T21:27:50;100332.92;;;0.33;83.84
75549;BME280;64133;56.002;37.208;2024-01-30T21:32:54;100322.67;;;0.11;83.82
75549;BME280;64133;56.002;37.208;2024-01-30T21:37:59;100324.19;;;0.19;84.39
75549;BME280;64133;56.002;37.208;2024-01-30T21:43:05;100318.90;;;0.24;84.15
75549;BME280;64133;56.002;37.208;2024-01-30T21:48:10;100315.40;;;0.43;84.35
75549;BME280;64133;56.002;37.208;2024-01-30T21:53:14;100311.84;;;0.31;83.72
75549;BME280;64133;56.002;37.208;2024-01-30T21:58:19;100307.41;;;0.18;83.72
75549;BME280;64133;56.002;37.208;2024-01-30T22:03:24;100299.41;;;0.09;84.12
75549;BME280;64133;56.002;37.208;2024-01-30T22:08:29;100290.69;;;0.30;84.12
75549;BME280;64133;56.002;37.208;2024-01-30T22:13:34;100284.63;;;0.31;84.29
75549;BME280;64133;56.002;37.208;2024-01-30T22:18:40;100278.65;;;0.45;83.75
75549;BME280;64133;56.002;37.208;2024-01-30T22:23:45;100274.91;;;0.55;83.54
75549;BME280;64133;56.002;37.208;2024-01-30T22:28:50;100266.16;;;0.43;83.63
75549;BME280;64133;56.002;37.208;2024-01-30T22:33:55;100267.71;;;0.50;82.77
75549;BME280;64133;56.002;37.208;2024-01-30T22:39:02;100267.98;;;0.05;84.01
75549;BME280;64133;56.002;37.208;2024-01-30T22:44:10;100258.53;;;0.20;83.85
75549;BME280;64133;56.002;37.208;2024-01-30T22:49:14;100261.87;;;0.42;84.18
75549;BME280;64133;56.002;37.208;2024-01-30T22:54:19;100256.84;;;0.52;83.20
75549;BME280;64133;56.002;37.208;2024-01-30T22:59:24;100255.20;;;0.15;82.82
75549;BME280;64133;56.002;37.208;2024-01-30T23:04:29;100245.00;;;0.25;83.67
75549;BME280;64133;56.002;37.208;2024-01-30T23:09:34;100248.91;;;-0.09;82.88
75549;BME280;64133;56.002;37.208;2024-01-30T23:14:39;100242.27;;;-0.20;83.98
75549;BME280;64133;56.002;37.208;2024-01-30T23:19:44;100237.23;;;0.25;84.74
75549;BME280;64133;56.002;37.208;2024-01-30T23:24:49;100242.75;;;0.13;83.99
75549;BME280;64133;56.002;37.208;2024-01-30T23:29:54;100239.83;;;0.25;83.91
75549;BME280;64133;56.002;37.208;2024-01-30T23:34:59;100229.72;;;0.33;83.21
75549;BME280;64133;56.002;37.208;2024-01-30T23:40:07;100232.38;;;0.79;83.40
75549;BME280;64133;56.002;37.208;2024-01-30T23:45:10;100238.04;;;0.11;82.09
75549;BME280;64133;56.002;37.208;2024-01-30T23:50:15;100232.12;;;0.06;82.91
75549;BME280;64133;56.002;37.208;2024-01-30T23:55:20;100238.44;;;0.12;82.25
